Time;durP1;ratioP1;P1;durP2;ratioP2;P2;SDS_P1;SDS_P2;PMS_P1;PMS_P2;Temp;Humidity;BMP_temperature;BMP_pressure;BME280_temperature;BME280_humidity;BME280_pressure;Samples;Min_cycle;Max_cycle;Signal;HPM_P1;HPM_P2
2022/11/20 00:00:31;;;;;;;0.00;0.00;;;;;;;5.78;99.20;98253.38;4941148;28;20237;-59
2022/11/20 00:02:58;;;;;;;0.00;0.00;;;;;;;5.83;97.67;98248.59;4953911;28;20709;-60
2022/11/20 00:05:25;;;;;;;0.10;0.10;;;;;;;5.87;97.73;98256.94;4956417;28;20229;-60
2022/11/20 00:07:54;;;;;;;0.00;0.00;;;;;;;5.87;96.79;98255.16;4954755;28;20233;-60
2022/11/20 00:10:21;;;;;;;0.10;0.10;;;;;;;5.91;97.95;98260.91;4952502;28;20316;-60
2022/11/20 00:12:48;;;;;;;0.07;0.07;;;;;;;5.94;95.89;98257.22;4954171;28;20233;-59
2022/11/20 00:15:14;;;;;;;0.00;0.00;;;;;;;6.06;95.81;98256.22;4942145;28;20249;-60
2022/11/20 00:17:41;;;;;;;0.00;0.00;;;;;;;6.10;95.99;98254.22;4953074;28;20225;-60
2022/11/20 00:20:09;;;;;;;0.07;0.07;;;;;;;6.16;95.75;98259.66;4953460;28;20242;-60
2022/11/20 00:22:36;;;;;;;0.00;0.00;;;;;;;6.22;93.39;98265.28;4951135;28;20278;-60
2022/11/20 00:25:04;;;;;;;0.10;0.10;;;;;;;6.27;91.69;98258.78;4956870;28;20285;-60
2022/11/20 00:27:32;;;;;;;0.00;0.00;;;;;;;6.31;93.81;98270.50;4890138;28;20229;-60
2022/11/20 00:30:01;;;;;;;0.00;0.00;;;;;;;6.39;93.30;98269.00;4923650;28;20245;-60
2022/11/20 00:32:27;;;;;;;0.03;0.03;;;;;;;6.38;93.95;98269.94;4946440;28;20353;-59
2022/11/20 00:34:54;;;;;;;0.00;0.00;;;;;;;6.37;93.33;98270.91;4959430;28;20280;-60
2022/11/20 00:37:22;;;;;;;0.00;0.00;;;;;;;6.39;93.68;98269.84;4953192;28;20324;-59
2022/11/20 00:39:49;;;;;;;0.00;0.00;;;;;;;6.35;94.66;98261.50;4936344;28;20274;-60
2022/11/20 00:42:16;;;;;;;0.00;0.00;;;;;;;6.35;95.72;98264.09;4953115;28;20611;-60
2022/11/20 00:44:44;;;;;;;0.00;0.00;;;;;;;6.35;93.37;98274.47;4961044;28;20721;-60
2022/11/20 00:47:11;;;;;;;0.00;0.00;;;;;;;6.35;95.01;98271.88;4960434;28;20304;-60
2022/11/20 00:49:37;;;;;;;0.00;0.00;;;;;;;6.34;95.11;98275.44;4958428;28;20287;-60
2022/11/20 00:52:04;;;;;;;0.00;0.00;;;;;;;6.38;94.91;98272.53;4944017;28;20614;-60
2022/11/20 00:54:31;;;;;;;0.00;0.00;;;;;;;6.41;93.41;98270.53;4932802;28;20225;-60
2022/11/20 00:56:58;;;;;;;0.00;0.00;;;;;;;6.43;92.86;98271.22;4946271;28;20229;-60
2022/11/20 00:59:26;;;;;;;0.10;0.10;;;;;;;6.41;93.35;98277.47;4954985;28;20264;-59
2022/11/20 01:01:52;;;;;;;0.00;0.00;;;;;;;6.43;92.80;98266.03;4938222;28;20229;-60
2022/11/20 01:04:19;;;;;;;0.00;0.00;;;;;;;6.42;93.83;98277.34;4953967;28;20328;-59
2022/11/20 01:06:46;;;;;;;0.00;0.00;;;;;;;6.40;93.57;98266.28;4960166;28;20237;-60
2022/11/20 01:09:14;;;;;;;0.00;0.00;;;;;;;6.43;92.54;98267.78;4960059;28;20232;-60
2022/11/20 01:11:43;;;;;;;0.00;0.00;;;;;;;6.43;92.71;98267.78;4958373;28;20284;-60
2022/11/20 01:14:13;;;;;;;0.00;0.00;;;;;;;6.44;92.10;98270.25;4959491;28;20269;-60
2022/11/20 01:16:43;;;;;;;0.00;0.00;;;;;;;6.45;92.89;98278.84;4955564;28;20587;-60
2022/11/20 01:19:12;;;;;;;0.10;0.10;;;;;;;6.47;91.65;98266.56;4960436;28;20238;-59
2022/11/20 01:21:40;;;;;;;0.00;0.00;;;;;;;6.46;93.91;98264.94;4958011;28;20233;-59
2022/11/20 01:24:11;;;;;;;0.00;0.00;;;;;;;6.43;93.15;98272.97;4960382;28;20709;-59
2022/11/20 01:26:39;;;;;;;0.00;0.00;;;;;;;6.42;92.24;98266.13;4957507;28;20718;-59
2022/11/20 01:29:07;;;;;;;0.00;0.00;;;;;;;6.42;92.12;98277.34;4960304;28;20238;-60
2022/11/20 01:31:35;;;;;;;0.00;0.00;;;;;;;6.41;92.33;98280.06;4958555;28;23223;-61
2022/11/20 01:34:06;;;;;;;0.00;0.00;;;;;;;6.48;90.40;98271.63;4959772;28;20695;-60
2022/11/20 01:36:35;;;;;;;0.00;0.00;;;;;;;6.43;91.55;98275.56;4956529;28;20226;-60
2022/11/20 01:39:04;;;;;;;0.00;0.00;;;;;;;6.40;92.60;98268.03;4961084;28;20233;-61
2022/11/20 01:44:20;;;;;;;0.00;0.00;;;;;;;6.35;93.63;98271.88;4956291;28;20602;-60
2022/11/20 01:46:56;;;;;;;0.00;0.00;;;;;;;6.35;93.53;98266.69;4958768;28;20312;-60
2022/11/20 01:49:30;;;;;;;0.00;0.00;;;;;;;6.35;92.53;98271.06;4946428;28;20241;-60
2022/11/20 01:51:59;;;;;;;0.10;0.10;;;;;;;6.35;92.54;98273.66;4959628;28;20241;-62
2022/11/20 01:54:32;;;;;;;0.00;0.00;;;;;;;6.39;92.84;98269.00;4942650;28;20238;-60
2022/11/20 01:57:01;;;;;;;0.00;0.00;;;;;;;6.41;91.79;98270.53;4950220;28;20232;-60
2022/11/20 01:59:30;;;;;;;0.00;0.00;;;;;;;6.42;92.51;98274.75;4955905;28;20244;-59
2022/11/20 02:01:57;;;;;;;0.10;0.10;;;;;;;6.43;92.81;98270.38;4960113;28;20324;-59
2022/11/20 02:04:25;;;;;;;0.00;0.00;;;;;;;6.41;92.85;98270.53;4959836;28;20230;-61
2022/11/20 02:06:59;;;;;;;0.00;0.00;;;;;;;6.43;90.88;98275.56;4962369;28;20230;-60
2022/11/20 02:09:26;;;;;;;0.00;0.00;;;;;;;6.41;91.01;98267.94;4959398;28;20284;-60
2022/11/20 02:11:53;;;;;;;0.10;0.10;;;;;;;6.33;91.71;98260.84;4961875;28;20248;-60
2022/11/20 02:14:19;;;;;;;0.00;0.00;;;;;;;6.30;91.42;98261.09;4959943;28;20284;-60
2022/11/20 02:16:48;;;;;;;0.00;0.00;;;;;;;6.30;91.45;98268.88;4962609;28;20233;-59
2022/11/20 02:19:23;;;;;;;0.00;0.00;;;;;;;6.26;91.92;98262.31;4959473;28;21103;-60
2022/11/20 02:21:59;;;;;;;0.10;0.10;;;;;;;6.24;90.87;98263.38;4953159;28;20340;-59
2022/11/20 02:24:27;;;;;;;0.07;0.07;;;;;;;6.25;90.91;98265.03;4958495;28;20606;-60
2022/11/20 02:26:57;;;;;;;0.00;0.00;;;;;;;6.21;90.52;98254.09;4962325;28;20242;-60
2022/11/20 02:29:27;;;;;;;0.00;0.00;;;;;;;6.18;92.63;98262.94;4951838;28;20244;-60
2022/11/20 02:31:56;;;;;;;0.00;0.00;;;;;;;6.24;90.86;98263.38;4956980;28;20233;-60
2022/11/20 02:34:23;;;;;;;0.00;0.00;;;;;;;6.25;92.88;98260.66;4958621;28;20238;-60
2022/11/20 02:36:52;;;;;;;0.10;0.10;;;;;;;6.25;92.09;98267.63;4962577;28;20233;-59
2022/11/20 02:39:21;;;;;;;0.10;0.10;;;;;;;6.29;92.42;98256.88;4958204;28;20233;-59
2022/11/20 02:41:49;;;;;;;0.00;0.00;;;;;;;6.29;91.19;98256.88;4962571;28;20733;-59
2022/11/20 02:44:15;;;;;;;0.00;0.00;;;;;;;6.30;91.58;98260.25;4960772;28;20752;-59
2022/11/20 02:46:42;;;;;;;0.00;0.00;;;;;;;6.30;91.18;98249.88;4962232;28;20898;-58
2022/11/20 02:49:08;;;;;;;0.03;0.03;;;;;;;6.29;90.99;98261.22;4963887;28;20837;-58
2022/11/20 02:51:35;;;;;;;0.00;0.00;;;;;;;6.29;91.79;98261.22;4961865;28;20329;-58
2022/11/20 02:54:02;;;;;;;0.00;0.00;;;;;;;6.28;91.71;98255.22;4966746;28;20230;-59
2022/11/20 02:56:28;;;;;;;0.10;0.10;;;;;;;6.27;91.36;98252.75;4963285;28;20270;-58
2022/11/20 02:58:56;;;;;;;0.10;0.10;;;;;;;6.29;91.73;98254.28;4954651;28;20286;-58
2022/11/20 03:01:23;;;;;;;0.07;0.07;;;;;;;6.30;92.68;98255.91;4962349;28;20733;-58
2022/11/20 03:03:49;;;;;;;0.00;0.00;;;;;;;6.35;91.12;98255.50;4967222;28;20237;-58
2022/11/20 03:06:16;;;;;;;0.10;0.10;;;;;;;6.35;92.02;98248.56;4965136;28;20285;-59
2022/11/20 03:08:43;;;;;;;0.00;0.00;;;;;;;6.33;92.69;98252.22;4968148;28;20231;-58
2022/11/20 03:11:09;;;;;;;0.00;0.00;;;;;;;6.31;93.13;98259.31;4967887;28;20721;-58
2022/11/20 03:13:36;;;;;;;0.10;0.10;;;;;;;6.32;91.90;98263.53;4963866;28;20237;-58
2022/11/20 03:16:10;;;;;;;0.10;0.10;;;;;;;6.34;92.09;98261.63;4966965;28;20210;-59
2022/11/20 03:18:37;;;;;;;0.00;0.00;;;;;;;6.40;91.38;98262.88;4964034;28;20300;-59
2022/11/20 03:21:03;;;;;;;0.00;0.00;;;;;;;6.35;92.43;98266.69;4965722;28;20590;-59
2022/11/20 03:23:32;;;;;;;0.00;0.00;;;;;;;6.33;92.20;98265.19;4947007;28;20225;-58
2022/11/20 03:26:12;;;;;;;0.00;0.00;;;;;;;6.32;91.96;98256.59;4953407;28;20293;-59
2022/11/20 03:28:39;;;;;;;0.00;0.00;;;;;;;6.35;92.03;98253.75;4946745;28;20926;-58
2022/11/20 03:31:09;;;;;;;0.10;0.10;;;;;;;6.35;91.84;98261.50;4961221;28;20225;-59
2022/11/20 03:33:36;;;;;;;0.10;0.10;;;;;;;6.38;92.13;98264.75;4961211;28;20238;-60
2022/11/20 03:36:04;;;;;;;0.00;0.00;;;;;;;6.33;92.54;98260.84;4962331;28;20280;-60
2022/11/20 03:38:31;;;;;;;0.00;0.00;;;;;;;6.35;92.89;98265.88;4956530;28;20258;-59
2022/11/20 03:41:00;;;;;;;0.00;0.00;;;;;;;6.36;92.47;98262.31;4966321;28;20261;-59
2022/11/20 03:43:30;;;;;;;0.00;0.00;;;;;;;6.41;92.72;98251.53;4963103;28;20724;-59
2022/11/20 03:45:57;;;;;;;0.00;0.00;;;;;;;6.37;92.32;98260.53;4966390;28;20217;-59
2022/11/20 03:48:25;;;;;;;0.00;0.00;;;;;;;6.42;91.96;98242.81;4963846;28;20259;-58
2022/11/20 03:50:52;;;;;;;0.00;0.00;;;;;;;6.38;93.04;98250.03;4970322;28;20233;-58
2022/11/20 03:53:20;;;;;;;0.10;0.10;;;;;;;6.40;91.65;98255.91;4967616;28;20229;-58
2022/11/20 03:55:52;;;;;;;0.00;0.00;;;;;;;6.40;90.12;98250.75;4968162;28;20710;-58
2022/11/20 03:58:18;;;;;;;0.00;0.00;;;;;;;6.44;91.72;98256.47;4963852;28;20611;-60
2022/11/20 04:00:45;;;;;;;0.00;0.00;;;;;;;6.48;90.76;98250.06;4968058;28;20241;-59
2022/11/20 04:03:11;;;;;;;0.00;0.00;;;;;;;6.45;91.76;98258.94;4966098;28;20241;-59
2022/11/20 04:05:39;;;;;;;0.00;0.00;;;;;;;6.44;90.73;98251.28;4964627;28;20238;-58
2022/11/20 04:08:06;;;;;;;0.00;0.00;;;;;;;6.44;90.38;98267.66;4968254;28;20237;-58
2022/11/20 04:10:32;;;;;;;0.00;0.00;;;;;;;6.50;88.03;98245.56;4964353;28;20229;-58
2022/11/20 04:12:59;;;;;;;0.00;0.00;;;;;;;6.45;89.61;98255.50;4968758;28;20230;-58
2022/11/20 04:15:26;;;;;;;0.00;0.00;;;;;;;6.48;87.88;98257.84;4948863;28;20626;-58
2022/11/20 04:17:52;;;;;;;0.10;0.10;;;;;;;6.49;89.60;98257.72;4965913;28;20926;-58
2022/11/20 04:20:19;;;;;;;0.07;0.07;;;;;;;6.46;90.07;98245.00;4964273;28;20277;-59
2022/11/20 04:22:47;;;;;;;0.00;0.00;;;;;;;6.46;89.49;98257.16;4966512;28;20614;-58
2022/11/20 04:25:13;;;;;;;0.03;0.03;;;;;;;6.43;90.44;98245.28;4966161;28;20291;-58
2022/11/20 04:27:40;;;;;;;0.00;0.00;;;;;;;6.41;90.54;98257.56;4961337;28;20716;-59
2022/11/20 04:32:52;;;;;;;0.00;0.00;;;;;;;6.45;88.38;98255.50;5012708;23;20246;-60
2022/11/20 04:35:19;;;;;;;0.00;0.00;;;;;;;6.47;89.31;98251.84;4923561;28;20314;-60
2022/11/20 04:37:47;;;;;;;0.00;0.00;;;;;;;6.45;90.39;98250.31;4925609;28;20227;-60
2022/11/20 04:40:13;;;;;;;0.00;0.00;;;;;;;6.43;91.89;98253.06;4920464;28;20668;-59
2022/11/20 04:42:40;;;;;;;0.00;0.00;;;;;;;6.41;90.72;98251.53;4915774;28;20242;-59
2022/11/20 04:45:07;;;;;;;0.00;0.00;;;;;;;6.41;91.54;98252.38;4917871;28;20703;-60
2022/11/20 04:47:34;;;;;;;0.10;0.10;;;;;;;6.41;89.74;98254.13;4916688;28;20724;-59
2022/11/20 04:50:00;;;;;;;0.10;0.10;;;;;;;6.40;91.47;98255.91;4918152;28;20637;-59
2022/11/20 04:52:27;;;;;;;0.00;0.00;;;;;;;6.39;89.75;98256.88;4913373;28;20621;-60
2022/11/20 04:54:55;;;;;;;0.00;0.00;;;;;;;6.45;90.47;98258.09;4913827;28;20715;-60
2022/11/20 04:57:21;;;;;;;0.00;0.00;;;;;;;6.40;92.25;98255.91;4913797;28;20378;-61
2022/11/20 04:59:48;;;;;;;0.00;0.00;;;;;;;6.39;92.26;98243.06;4914476;29;20648;-60
2022/11/20 05:02:14;;;;;;;0.03;0.03;;;;;;;6.39;91.34;98256.03;4912672;28;20251;-61
2022/11/20 05:04:41;;;;;;;0.10;0.10;;;;;;;6.37;93.13;98250.16;4919051;28;20247;-60
2022/11/20 05:07:07;;;;;;;0.00;0.00;;;;;;;6.39;93.66;98245.66;4916343;28;20240;-60
2022/11/20 05:09:34;;;;;;;0.00;0.00;;;;;;;6.33;94.78;98239.25;4912147;28;20343;-60
2022/11/20 05:12:02;;;;;;;0.00;0.00;;;;;;;6.30;92.20;98240.34;4913737;28;20244;-60
2022/11/20 05:14:28;;;;;;;0.00;0.00;;;;;;;6.30;93.07;98237.75;4916730;28;20244;-60
2022/11/20 05:16:55;;;;;;;0.10;0.10;;;;;;;6.33;93.57;98237.50;4915790;28;20247;-60
2022/11/20 05:19:22;;;;;;;0.00;0.00;;;;;;;6.27;93.39;98245.81;4914765;28;20243;-60
2022/11/20 05:24:38;;;;;;;0.00;0.00;;;;;;;6.31;91.63;98236.81;4876528;28;20243;-59
2022/11/20 05:27:06;;;;;;;0.00;0.00;;;;;;;6.41;89.36;98223.03;4878588;29;20288;-59
2022/11/20 05:29:33;;;;;;;0.00;0.00;;;;;;;6.39;91.31;98238.72;4876443;29;20228;-59
2022/11/20 05:31:59;;;;;;;0.00;0.00;;;;;;;6.40;89.88;98232.59;4879171;29;20243;-59
2022/11/20 05:34:26;;;;;;;0.00;0.00;;;;;;;6.40;90.47;98247.31;4876754;29;20285;-59
2022/11/20 05:36:53;;;;;;;0.00;0.00;;;;;;;6.43;89.98;98234.91;4884429;29;20224;-58
2022/11/20 05:39:19;;;;;;;0.00;0.00;;;;;;;6.43;88.50;98245.28;4880276;29;20236;-59
2022/11/20 05:41:46;;;;;;;0.00;0.00;;;;;;;6.43;90.53;98234.06;4880264;29;20257;-59
2022/11/20 05:44:14;;;;;;;0.00;0.00;;;;;;;6.40;88.98;98235.19;4881774;29;20285;-59
2022/11/20 05:46:40;;;;;;;0.00;0.00;;;;;;;6.42;90.38;98242.81;4877313;29;20705;-59
2022/11/20 05:49:07;;;;;;;0.00;0.00;;;;;;;6.40;90.00;98226.56;4881227;29;20232;-60
2022/11/20 05:51:33;;;;;;;0.10;0.10;;;;;;;6.42;90.05;98233.28;4880277;29;20285;-59
2022/11/20 05:54:00;;;;;;;0.00;0.00;;;;;;;6.41;89.76;98242.00;4879953;29;20328;-58
2022/11/20 05:56:27;;;;;;;0.00;0.00;;;;;;;6.42;90.56;98235.03;4879543;29;20736;-59
2022/11/20 05:58:53;;;;;;;0.00;0.00;;;;;;;6.43;91.13;98245.28;4883459;29;20795;-59
2022/11/20 06:01:23;;;;;;;0.00;0.00;;;;;;;6.43;89.15;98237.50;4881808;29;20302;-59
2022/11/20 06:03:50;;;;;;;0.00;0.00;;;;;;;6.44;89.41;98246.91;4879788;29;20236;-59
2022/11/20 06:06:18;;;;;;;0.00;0.00;;;;;;;6.47;89.67;98231.09;4882443;29;21006;-59
2022/11/20 06:08:45;;;;;;;0.00;0.00;;;;;;;6.43;90.47;98242.69;4877086;29;20297;-59
2022/11/20 06:11:14;;;;;;;0.00;0.00;;;;;;;6.47;89.79;98240.63;4882078;29;20249;-59
2022/11/20 06:13:41;;;;;;;0.00;0.00;;;;;;;6.50;89.42;98251.56;4880607;29;20237;-59
2022/11/20 06:16:08;;;;;;;0.00;0.00;;;;;;;6.48;89.64;98239.69;4884102;29;20229;-58
2022/11/20 06:18:36;;;;;;;0.00;0.00;;;;;;;6.48;89.30;98235.34;4882239;29;20262;-58
2022/11/20 06:21:05;;;;;;;0.00;0.00;;;;;;;6.46;88.99;98249.38;4880978;29;20260;-59
2022/11/20 06:23:33;;;;;;;0.10;0.10;;;;;;;6.46;89.47;98241.59;4881289;29;20224;-58
2022/11/20 06:26:03;;;;;;;0.10;0.10;;;;;;;6.45;89.76;98239.94;4881411;29;20258;-58
2022/11/20 06:28:29;;;;;;;0.00;0.00;;;;;;;6.45;89.74;98245.13;4877919;29;20336;-59
2022/11/20 06:30:56;;;;;;;0.00;0.00;;;;;;;6.49;88.97;98243.91;4879819;29;20643;-59
2022/11/20 06:33:23;;;;;;;0.00;0.00;;;;;;;6.47;89.13;98238.88;4879694;29;20296;-58
2022/11/20 06:35:51;;;;;;;0.00;0.00;;;;;;;6.48;90.42;98243.09;4881042;29;20686;-58
2022/11/20 06:38:17;;;;;;;0.07;0.07;;;;;;;6.49;90.20;98246.50;4877142;29;20256;-58
2022/11/20 06:40:44;;;;;;;0.10;0.10;;;;;;;6.52;92.25;98246.25;4882836;29;20240;-58
2022/11/20 06:43:11;;;;;;;0.00;0.00;;;;;;;6.41;94.18;98249.78;4883021;29;20693;-59
2022/11/20 06:45:38;;;;;;;0.10;0.10;;;;;;;6.35;95.29;98253.75;4878396;29;20270;-59
2022/11/20 06:48:04;;;;;;;0.10;0.10;;;;;;;6.27;98.33;98248.41;4880892;29;20296;-59
2022/11/20 06:50:31;;;;;;;0.00;0.00;;;;;;;6.21;98.94;98246.34;4880919;29;20247;-58
2022/11/20 06:53:02;;;;;;;0.00;0.00;;;;;;;6.11;100.00;98251.47;4884339;29;20661;-58
2022/11/20 06:55:28;;;;;;;0.00;0.00;;;;;;;6.15;99.43;98252.84;4878623;29;20779;-59
2022/11/20 06:57:58;;;;;;;0.03;0.03;;;;;;;6.07;100.00;98255.28;4883432;29;20229;-60
2022/11/20 07:00:24;;;;;;;0.00;0.00;;;;;;;6.03;100.00;98259.91;4875886;29;20233;-58
2022/11/20 07:02:51;;;;;;;0.00;0.00;;;;;;;5.99;100.00;98260.25;4883463;29;20709;-58
2022/11/20 07:05:18;;;;;;;0.00;0.00;;;;;;;5.99;100.00;98255.06;4876841;29;20261;-59
2022/11/20 07:07:44;;;;;;;0.00;0.00;;;;;;;6.00;100.00;98261.91;4879301;29;20292;-59
2022/11/20 07:10:13;;;;;;;0.00;0.00;;;;;;;5.98;100.00;98258.63;4881775;29;20320;-58
2022/11/20 07:12:39;;;;;;;0.00;0.00;;;;;;;5.95;100.00;98270.06;4880193;29;20291;-59
2022/11/20 07:15:07;;;;;;;0.03;0.03;;;;;;;5.98;100.00;98266.38;4881157;29;20233;-58
2022/11/20 07:17:33;;;;;;;0.03;0.03;;;;;;;5.99;100.00;98266.28;4884582;29;20738;-58
2022/11/20 07:20:00;;;;;;;0.10;0.10;;;;;;;6.05;100.00;98265.78;4879472;29;20240;-59
2022/11/20 07:22:27;;;;;;;0.10;0.10;;;;;;;6.00;100.00;98273.13;4877521;29;20716;-58
2022/11/20 07:24:53;;;;;;;0.03;0.03;;;;;;;6.02;100.00;98278.16;4880532;29;20232;-59
2022/11/20 07:27:21;;;;;;;0.00;0.00;;;;;;;6.03;100.00;98272.03;4876325;29;20237;-59
2022/11/20 07:29:48;;;;;;;0.00;0.00;;;;;;;6.00;100.00;98273.13;4882238;29;20742;-58
2022/11/20 07:32:14;;;;;;;0.10;0.10;;;;;;;6.01;100.00;98282.53;4881427;29;20582;-59
2022/11/20 07:34:41;;;;;;;0.00;0.00;;;;;;;6.01;100.00;98277.38;4881553;29;20236;-59
2022/11/20 07:37:07;;;;;;;0.00;0.00;;;;;;;6.03;100.00;98279.81;4881677;29;20260;-59
2022/11/20 07:39:34;;;;;;;0.00;0.00;;;;;;;5.96;100.00;98281.25;4878909;29;20228;-58
2022/11/20 07:42:00;;;;;;;0.07;0.07;;;;;;;5.99;100.00;98279.22;4879652;29;20251;-58
2022/11/20 07:44:28;;;;;;;0.00;0.00;;;;;;;6.00;100.00;98278.31;4878132;29;20242;-59
2022/11/20 07:46:55;;;;;;;0.10;0.10;;;;;;;6.02;100.00;98275.56;4878733;29;20236;-58
2022/11/20 07:49:22;;;;;;;0.10;0.10;;;;;;;6.07;100.00;98282.97;4880729;29;20232;-58
2022/11/20 07:51:51;;;;;;;0.00;0.00;;;;;;;6.02;100.00;98288.53;4882465;29;20245;-59
2022/11/20 07:54:17;;;;;;;0.00;0.00;;;;;;;6.04;100.00;98292.66;4879119;29;20236;-58
2022/11/20 07:56:44;;;;;;;0.00;0.00;;;;;;;6.01;100.00;98300.69;4875468;29;20694;-59
2022/11/20 07:59:11;;;;;;;0.00;0.00;;;;;;;6.00;100.00;98298.16;4879576;29;20232;-59
2022/11/20 08:01:39;;;;;;;0.10;0.10;;;;;;;6.02;100.00;98285.94;4879598;29;20652;-57
2022/11/20 08:04:07;;;;;;;0.10;0.10;;;;;;;6.06;100.00;98310.63;4881583;29;20232;-57
2022/11/20 08:06:33;;;;;;;0.00;0.00;;;;;;;6.05;100.00;98309.00;4879820;29;20288;-57
2022/11/20 08:09:00;;;;;;;0.00;0.00;;;;;;;6.05;100.00;98302.06;4880152;29;20248;-58
2022/11/20 08:14:14;;;;;;;0.10;0.10;;;;;;;6.08;100.00;98313.13;4876648;29;20729;-58
2022/11/20 08:16:43;;;;;;;0.10;0.10;;;;;;;6.00;100.00;98308.53;4876980;29;20245;-57
2022/11/20 08:19:10;;;;;;;0.00;0.00;;;;;;;6.02;100.00;98328.22;4880419;29;20241;-57
2022/11/20 08:21:37;;;;;;;0.10;0.10;;;;;;;6.02;100.00;98322.22;4877475;29;20233;-57
2022/11/20 08:24:05;;;;;;;0.00;0.00;;;;;;;6.02;100.00;98319.63;4881422;29;20957;-57
2022/11/20 08:26:34;;;;;;;0.00;0.00;;;;;;;6.09;100.00;98322.53;4878754;29;20241;-57
2022/11/20 08:29:01;;;;;;;0.03;0.03;;;;;;;6.04;100.00;98326.34;4881339;29;20720;-57
2022/11/20 08:31:28;;;;;;;0.10;0.10;;;;;;;6.10;100.00;98324.97;4880615;29;20664;-57
2022/11/20 08:33:56;;;;;;;0.00;0.00;;;;;;;6.19;100.00;98331.16;4881714;29;20244;-57
2022/11/20 08:36:24;;;;;;;0.10;0.10;;;;;;;6.20;100.00;98330.22;4876465;29;20420;-58
2022/11/20 08:38:52;;;;;;;0.00;0.00;;;;;;;6.18;100.00;98342.50;4880135;29;20239;-58
2022/11/20 08:41:25;;;;;;;0.00;0.00;;;;;;;6.21;100.00;98329.28;4877936;29;20321;-58
2022/11/20 08:43:54;;;;;;;0.00;0.00;;;;;;;6.17;100.00;98340.84;4880473;29;20296;-58
2022/11/20 08:46:21;;;;;;;0.03;0.03;;;;;;;6.19;100.00;98341.53;4879873;29;20697;-58
2022/11/20 08:48:47;;;;;;;0.03;0.03;;;;;;;6.24;100.00;98352.34;4879743;29;20249;-58
2022/11/20 08:51:15;;;;;;;0.00;0.00;;;;;;;6.17;100.00;98341.66;4879398;29;20239;-57
2022/11/20 08:53:42;;;;;;;0.00;0.00;;;;;;;6.23;100.00;98342.09;4875093;29;20237;-58
2022/11/20 08:56:10;;;;;;;0.00;0.00;;;;;;;6.23;100.00;98345.50;4880124;29;20288;-55
2022/11/20 08:58:36;;;;;;;0.10;0.10;;;;;;;6.28;100.00;98343.34;4877170;29;20327;-57
2022/11/20 09:01:03;;;;;;;0.00;0.00;;;;;;;6.24;100.00;98352.34;4876203;29;20241;-57
2022/11/20 09:03:32;;;;;;;0.00;0.00;;;;;;;6.31;100.00;98350.88;4879148;29;20232;-58
2022/11/20 09:06:00;;;;;;;0.00;0.00;;;;;;;6.34;100.00;98360.16;4879628;29;20251;-57
2022/11/20 09:08:28;;;;;;;0.00;0.00;;;;;;;6.29;100.00;98350.19;4875928;29;20229;-58
2022/11/20 09:10:56;;;;;;;0.00;0.00;;;;;;;6.26;100.00;98362.56;4876669;29;20239;-56
2022/11/20 09:13:24;;;;;;;0.10;0.10;;;;;;;6.28;100.00;98355.47;4877156;29;20245;-57
2022/11/20 09:15:54;;;;;;;0.00;0.00;;;;;;;6.30;100.00;98356.16;4880261;29;20241;-57
2022/11/20 09:18:21;;;;;;;0.00;0.00;;;;;;;6.34;100.00;98354.97;4876492;29;20315;-57
2022/11/20 09:20:47;;;;;;;0.00;0.00;;;;;;;6.32;100.00;98362.88;4875773;29;20243;-58
2022/11/20 09:23:14;;;;;;;0.10;0.10;;;;;;;6.32;100.00;98362.03;4879884;29;20241;-57
2022/11/20 09:25:42;;;;;;;0.00;0.00;;;;;;;6.42;100.00;98360.31;4871406;29;20232;-57
2022/11/20 09:28:08;;;;;;;0.03;0.03;;;;;;;6.50;100.00;98367.44;4877623;29;20241;-57
2022/11/20 09:30:35;;;;;;;0.00;0.00;;;;;;;6.52;100.00;98375.09;4876828;29;20244;-58
2022/11/20 09:33:02;;;;;;;0.10;0.10;;;;;;;6.57;100.00;98373.72;4878038;29;20243;-57
2022/11/20 09:35:28;;;;;;;0.00;0.00;;;;;;;6.52;100.00;98395.84;4875760;29;20714;-57
2022/11/20 09:37:55;;;;;;;0.10;0.10;;;;;;;6.66;100.00;98379.91;4879273;29;20612;-59
2022/11/20 09:40:23;;;;;;;0.00;0.00;;;;;;;6.72;100.00;98383.75;4876803;29;20652;-57
2022/11/20 09:42:58;;;;;;;0.00;0.00;;;;;;;6.72;100.00;98383.75;4879527;29;20257;-58
2022/11/20 09:45:37;;;;;;;0.10;0.10;;;;;;;6.81;100.00;98390.72;4874368;29;20235;-57
2022/11/20 09:48:19;;;;;;;0.00;0.00;;;;;;;6.85;100.00;98392.13;4877067;29;20254;-58
2022/11/20 09:50:58;;;;;;;0.00;0.00;;;;;;;6.86;100.00;98385.16;4873979;29;20244;-57
2022/11/20 09:53:34;;;;;;;0.00;0.00;;;;;;;6.64;100.00;98398.19;4876410;29;20240;-57
2022/11/20 09:56:03;;;;;;;0.10;0.10;;;;;;;6.76;100.00;98385.97;4880423;29;20224;-57
2022/11/20 09:58:35;;;;;;;0.00;0.00;;;;;;;6.67;100.00;98385.91;4877391;29;20233;-58
2022/11/20 10:01:11;;;;;;;0.00;0.00;;;;;;;6.69;100.00;98384.00;4880874;29;20264;-57
2022/11/20 10:03:48;;;;;;;0.00;0.00;;;;;;;6.75;100.00;98397.28;4875569;29;20335;-57
2022/11/20 10:06:19;;;;;;;0.07;0.07;;;;;;;6.83;98.92;98388.03;4880199;29;20231;-57
2022/11/20 10:08:55;;;;;;;0.00;0.00;;;;;;;6.86;99.10;98392.94;4879394;29;20242;-58
2022/11/20 10:11:29;;;;;;;0.00;0.00;;;;;;;6.89;98.52;98390.91;4873353;29;20228;-57
2022/11/20 10:14:11;;;;;;;0.00;0.00;;;;;;;6.86;99.36;98398.94;4878538;29;20236;-57
2022/11/20 10:16:47;;;;;;;0.00;0.00;;;;;;;6.91;98.91;98394.19;4874249;29;20703;-57
2022/11/20 10:19:34;;;;;;;0.00;0.00;;;;;;;6.88;98.89;98389.25;4877016;29;20580;-57
2022/11/20 10:22:13;;;;;;;0.00;0.00;;;;;;;6.99;98.15;98387.50;4873995;29;20720;-58
2022/11/20 10:24:55;;;;;;;0.00;0.00;;;;;;;7.16;96.16;98381.66;4879052;29;20236;-58
2022/11/20 10:27:46;;;;;;;0.00;0.00;;;;;;;7.28;96.30;98376.34;4880074;29;20252;-58
2022/11/20 10:30:16;;;;;;;0.00;0.00;;;;;;;7.25;95.70;98380.00;4882443;29;20709;-58
2022/11/20 10:32:47;;;;;;;0.00;0.00;;;;;;;7.54;95.95;98379.22;4881398;29;20237;-57
2022/11/20 10:35:24;;;;;;;0.00;0.00;;;;;;;7.67;94.51;98374.56;4882256;29;20236;-58
2022/11/20 10:37:58;;;;;;;0.00;0.00;;;;;;;7.68;91.47;98375.34;4877919;29;20570;-57
2022/11/20 10:40:32;;;;;;;0.00;0.00;;;;;;;7.79;90.84;98369.22;4878870;29;20605;-57
2022/11/20 10:43:02;;;;;;;0.00;0.00;;;;;;;7.88;91.72;98378.78;4878805;29;20248;-57
2022/11/20 10:45:45;;;;;;;0.00;0.00;;;;;;;7.54;90.33;98366.22;4878609;29;20233;-57
2022/11/20 10:48:17;;;;;;;0.00;0.00;;;;;;;7.63;89.95;98359.38;4882385;29;20605;-57
2022/11/20 10:50:56;;;;;;;0.00;0.00;;;;;;;7.46;91.78;98355.69;4882732;29;20241;-57
2022/11/20 10:53:38;;;;;;;0.00;0.00;;;;;;;7.36;91.04;98361.72;4879462;29;20229;-57
2022/11/20 10:56:12;;;;;;;0.00;0.00;;;;;;;7.17;92.04;98361.69;4883007;29;20405;-58
2022/11/20 10:58:46;;;;;;;0.00;0.00;;;;;;;7.34;90.27;98349.84;4878595;29;20245;-57
2022/11/20 11:01:18;;;;;;;0.00;0.00;;;;;;;7.32;91.02;98342.16;4880502;29;20257;-58
2022/11/20 11:03:44;;;;;;;0.00;0.00;;;;;;;7.49;90.94;98339.84;4880437;29;20241;-57
2022/11/20 11:06:18;;;;;;;0.00;0.00;;;;;;;7.57;88.07;98332.19;4880051;29;20241;-57
2022/11/20 11:08:48;;;;;;;0.00;0.00;;;;;;;7.42;89.49;98334.34;4880342;29;20241;-58
2022/11/20 11:11:22;;;;;;;0.00;0.00;;;;;;;7.58;88.67;98327.78;4883254;29;20241;-57
2022/11/20 11:13:49;;;;;;;0.00;0.00;;;;;;;7.89;88.65;98327.59;4877071;29;20319;-57
2022/11/20 11:16:24;;;;;;;0.00;0.00;;;;;;;7.72;89.30;98329.94;4877643;29;20242;-57
2022/11/20 11:18:52;;;;;;;0.00;0.00;;;;;;;7.73;86.89;98323.81;4882975;29;20643;-58
2022/11/20 11:21:26;;;;;;;0.00;0.00;;;;;;;7.38;88.75;98315.66;4878326;29;20229;-57
2022/11/20 11:24:03;;;;;;;0.00;0.00;;;;;;;7.27;89.85;98307.19;4881644;29;20313;-57
2022/11/20 11:26:30;;;;;;;0.00;0.00;;;;;;;7.30;90.41;98307.72;4880017;29;20280;-57
2022/11/20 11:28:58;;;;;;;0.00;0.00;;;;;;;7.18;89.54;98294.09;4879822;29;20241;-57
2022/11/20 11:31:28;;;;;;;0.00;0.00;;;;;;;7.41;88.37;98305.94;4879589;29;20243;-56
2022/11/20 11:34:06;;;;;;;0.00;0.00;;;;;;;7.49;87.61;98301.69;4879909;29;20829;-57
2022/11/20 11:36:34;;;;;;;0.00;0.00;;;;;;;7.51;88.92;98291.97;4886023;29;20248;-58
2022/11/20 11:39:02;;;;;;;0.00;0.00;;;;;;;7.45;88.87;98294.31;4880227;29;20718;-57
2022/11/20 11:41:32;;;;;;;0.10;0.10;;;;;;;7.33;89.50;98283.28;4879480;29;20245;-57
2022/11/20 11:46:56;;;;;;;0.10;0.10;;;;;;;7.36;90.88;98280.41;4879748;29;20241;-57
2022/11/20 11:49:23;;;;;;;0.00;0.00;;;;;;;7.50;89.53;98263.56;4878551;29;20248;-58
2022/11/20 11:52:09;;;;;;;0.00;0.00;;;;;;;7.78;87.46;98259.25;4877863;29;20572;-57
2022/11/20 11:54:40;;;;;;;0.00;0.00;;;;;;;8.06;85.34;98258.44;4880733;29;20300;-58
2022/11/20 11:57:15;;;;;;;0.00;0.00;;;;;;;8.21;84.45;98254.41;4879033;29;20693;-57
2022/11/20 11:59:55;;;;;;;0.00;0.00;;;;;;;8.20;84.05;98265.78;4877558;29;20288;-57